Time;durP1;ratioP1;P1;durP2;ratioP2;P2;SDS_P1;SDS_P2;PMS_P1;PMS_P2;Temp;Humidity;BMP_temperature;BMP_pressure;BME280_temperature;BME280_humidity;BME280_pressure;Samples;Min_cycle;Max_cycle;Signal;HPM_P1;HPM_P2
2023/03/07 00:01:09;;;;;;;;;;;;;;;6.26;100.00;97434.59;4992477;28;19921;-41
2023/03/07 00:03:35;;;;;;;;;;;;;;;5.74;100.00;97434.00;4989499;28;19925;-41
2023/03/07 00:06:01;;;;;;;;;;;;;;;6.21;100.00;97440.78;4989920;28;20038;-40
2023/03/07 00:08:27;;;;;;;;;;;;;;;6.38;100.00;97440.09;4990225;28;19928;-40
2023/03/07 00:10:52;;;;;;;;;;;;;;;5.77;100.00;97439.03;4990817;28;19921;-40
2023/03/07 00:13:17;;;;;;;;;;;;;;;6.12;100.00;97449.63;4991992;28;20060;-40
2023/03/07 00:15:42;;;;;;;;;;;;;;;6.55;100.00;97462.44;4990687;28;19925;-40
2023/03/07 00:18:07;;;;;;;;;;;;;;;6.67;100.00;97447.41;4990168;28;19928;-40
2023/03/07 00:20:33;;;;;;;;;;;;;;;6.04;100.00;97442.28;4990077;28;19917;-40
2023/03/07 00:22:58;;;;;;;;;;;;;;;6.07;100.00;97436.22;4990464;28;19997;-40
2023/03/07 00:25:23;;;;;;;;;;;;;;;6.17;100.00;97432.38;4990414;28;19929;-40
2023/03/07 00:27:48;;;;;;;;;;;;;;;6.27;100.00;97438.81;4991942;28;19917;-40
2023/03/07 00:30:14;;;;;;;;;;;;;;;6.11;100.00;97447.97;4992360;28;19932;-40
2023/03/07 00:32:39;;;;;;;;;;;;;;;6.33;100.00;97453.06;4993564;28;19960;-40
2023/03/07 00:35:04;;;;;;;;;;;;;;;6.24;100.00;97443.22;4994661;28;19960;-40
2023/03/07 00:37:29;;;;;;;;;;;;;;;6.47;100.00;97445.66;4994481;28;19917;-40
2023/03/07 00:39:55;;;;;;;;;;;;;;;6.27;100.00;97431.16;4994720;28;19925;-40
2023/03/07 00:42:20;;;;;;;;;;;;;;;6.05;100.00;97432.88;4990681;28;19918;-40
2023/03/07 00:44:45;;;;;;;;;;;;;;;6.45;100.00;97441.50;4993791;28;19921;-40
2023/03/07 00:47:11;;;;;;;;;;;;;;;6.15;100.00;97444.41;4992354;28;19930;-40
2023/03/07 00:49:36;;;;;;;;;;;;;;;6.13;100.00;97441.06;4991426;28;19957;-40
2023/03/07 00:52:02;;;;;;;;;;;;;;;6.17;100.00;97440.06;4992913;28;19951;-40
2023/03/07 00:54:27;;;;;;;;;;;;;;;5.80;100.00;97441.44;4993973;28;19925;-40
2023/03/07 00:56:52;;;;;;;;;;;;;;;5.98;100.00;97446.78;4992780;28;19961;-40
2023/03/07 00:59:17;;;;;;;;;;;;;;;6.02;100.00;97453.44;4993544;28;20067;-40
2023/03/07 01:01:43;;;;;;;;;;;;;;;6.38;100.00;97461.38;4990974;28;19922;-40
2023/03/07 01:04:08;;;;;;;;;;;;;;;6.00;100.00;97458.63;4994109;28;19922;-40
2023/03/07 01:06:33;;;;;;;;;;;;;;;5.77;100.00;97454.34;4992589;28;19921;-40
2023/03/07 01:08:59;;;;;;;;;;;;;;;5.45;100.00;97451.25;4993153;28;20040;-40
2023/03/07 01:11:25;;;;;;;;;;;;;;;6.19;100.00;97470.69;4993013;28;20059;-40
2023/03/07 01:13:53;;;;;;;;;;;;;;;6.46;100.00;97486.66;4992178;28;19929;-40
2023/03/07 01:16:19;;;;;;;;;;;;;;;6.17;100.00;97473.28;4991741;28;19925;-40
2023/03/07 01:18:47;;;;;;;;;;;;;;;5.77;100.00;97473.94;4993592;28;19936;-40
2023/03/07 01:21:13;;;;;;;;;;;;;;;5.80;100.00;97479.78;4993370;28;21021;-40
2023/03/07 01:23:38;;;;;;;;;;;;;;;5.59;100.00;97473.75;4993580;28;19983;-40
2023/03/07 01:26:03;;;;;;;;;;;;;;;5.18;100.00;97475.22;4993919;28;20932;-40
2023/03/07 01:28:29;;;;;;;;;;;;;;;6.00;100.00;97496.94;4992706;28;19925;-40
2023/03/07 01:30:58;;;;;;;;;;;;;;;5.60;100.00;97487.34;4992634;28;20074;-41
2023/03/07 01:33:23;;;;;;;;;;;;;;;5.26;100.00;97488.53;4993622;28;19924;-40
2023/03/07 01:35:48;;;;;;;;;;;;;;;5.65;100.00;97501.59;4991376;28;20779;-40
2023/03/07 01:38:13;;;;;;;;;;;;;;;5.36;100.00;97504.34;4991464;28;19922;-40
2023/03/07 01:40:39;;;;;;;;;;;;;;;5.66;100.00;97520.31;4992862;28;20068;-40
2023/03/07 01:43:23;;;;;;;;;;;;;;;5.89;100.00;97518.66;5010133;28;19963;-40
2023/03/07 01:45:48;;;;;;;;;;;;;;;5.70;100.00;97514.19;5012194;28;20853;-40
2023/03/07 01:48:13;;;;;;;;;;;;;;;5.62;100.00;97511.91;5012371;28;19917;-40
2023/03/07 01:50:38;;;;;;;;;;;;;;;5.79;100.00;97523.25;5008400;28;20814;-40
2023/03/07 01:53:03;;;;;;;;;;;;;;;5.38;100.00;97528.09;5005717;28;19960;-40
2023/03/07 01:55:29;;;;;;;;;;;;;;;5.36;100.00;97520.53;5009023;28;19968;-40
2023/03/07 01:57:55;;;;;;;;;;;;;;;6.11;100.00;97550.19;5008149;28;19934;-40
2023/03/07 02:00:27;;;;;;;;;;;;;;;5.30;100.00;97519.91;4999951;28;19933;-40
2023/03/07 02:02:56;;;;;;;;;;;;;;;5.84;100.00;97547.75;5004064;28;19921;-40
2023/03/07 02:05:29;;;;;;;;;;;;;;;5.64;100.00;97535.69;5006594;28;20684;-40
2023/03/07 02:07:55;;;;;;;;;;;;;;;5.77;100.00;97543.75;5023685;28;19928;-40
2023/03/07 02:10:20;;;;;;;;;;;;;;;5.76;100.00;97539.53;5008879;28;19917;-41
2023/03/07 02:12:46;;;;;;;;;;;;;;;5.44;100.00;97533.84;5023167;28;19956;-40
2023/03/07 02:15:12;;;;;;;;;;;;;;;5.92;100.00;97556.84;5008164;28;20012;-40
2023/03/07 02:17:38;;;;;;;;;;;;;;;5.86;100.00;97532.34;5019714;28;19953;-40
2023/03/07 02:20:19;;;;;;;;;;;;;;;5.84;100.00;97542.63;5007203;28;19917;-40
2023/03/07 02:22:45;;;;;;;;;;;;;;;5.46;100.00;97523.56;5004530;28;19964;-40
2023/03/07 02:25:13;;;;;;;;;;;;;;;5.55;100.00;97538.56;5009159;28;19953;-40
2023/03/07 02:27:38;;;;;;;;;;;;;;;5.77;100.00;97553.13;5009831;28;19923;-40
2023/03/07 02:30:04;;;;;;;;;;;;;;;5.99;100.00;97550.66;5004123;28;19920;-40
2023/03/07 02:32:29;;;;;;;;;;;;;;;5.65;100.00;97547.56;5006301;28;19921;-40
2023/03/07 02:34:54;;;;;;;;;;;;;;;5.66;100.00;97553.53;5009260;28;19925;-40
2023/03/07 02:37:24;;;;;;;;;;;;;;;5.60;100.00;97553.72;5010973;28;19917;-40
2023/03/07 02:39:49;;;;;;;;;;;;;;;5.80;100.00;97561.50;5008280;28;19926;-40
2023/03/07 02:42:27;;;;;;;;;;;;;;;5.71;100.00;97561.84;5006224;28;19930;-40
2023/03/07 02:45:00;;;;;;;;;;;;;;;6.11;100.00;97580.84;5025519;28;19932;-40
2023/03/07 02:47:25;;;;;;;;;;;;;;;5.53;100.00;97562.50;5006018;28;20121;-40
2023/03/07 02:49:50;;;;;;;;;;;;;;;6.32;100.00;97578.41;5006037;28;19917;-40
2023/03/07 02:52:15;;;;;;;;;;;;;;;6.07;100.00;97559.72;5002359;28;19921;-40
2023/03/07 02:54:41;;;;;;;;;;;;;;;5.98;100.00;97549.00;5007916;28;19939;-40
2023/03/07 02:57:06;;;;;;;;;;;;;;;6.25;100.00;97553.09;5009013;28;19913;-40
2023/03/07 02:59:31;;;;;;;;;;;;;;;5.40;100.00;97526.34;5006887;28;19918;-40
2023/03/07 03:01:56;;;;;;;;;;;;;;;5.72;100.00;97549.91;5007012;28;19917;-40
2023/03/07 03:04:21;;;;;;;;;;;;;;;5.90;100.00;97541.56;5008846;28;20052;-40
2023/03/07 03:06:47;;;;;;;;;;;;;;;5.59;100.00;97552.06;5007665;28;20008;-40
2023/03/07 03:09:12;;;;;;;;;;;;;;;6.07;100.00;97564.00;5006781;28;20055;-47
2023/03/07 03:11:37;;;;;;;;;;;;;;;5.85;100.00;97569.00;5006238;28;19921;-40
2023/03/07 03:14:02;;;;;;;;;;;;;;;5.79;100.00;97559.88;5004436;28;20356;-40
2023/03/07 03:16:28;;;;;;;;;;;;;;;6.22;100.00;97577.91;5007666;28;20055;-41
2023/03/07 03:18:53;;;;;;;;;;;;;;;5.74;100.00;97560.91;5000595;28;19917;-41
2023/03/07 03:21:18;;;;;;;;;;;;;;;5.95;100.00;97579.75;5007800;28;19917;-41
2023/03/07 03:23:43;;;;;;;;;;;;;;;5.83;100.00;97569.06;5007304;28;19928;-41
2023/03/07 03:26:10;;;;;;;;;;;;;;;6.03;100.00;97582.88;5008288;28;20068;-41
2023/03/07 03:28:35;;;;;;;;;;;;;;;6.06;100.00;97573.34;5007282;28;19969;-40
2023/03/07 03:31:02;;;;;;;;;;;;;;;6.06;100.00;97592.97;5003674;28;19920;-40
2023/03/07 03:33:30;;;;;;;;;;;;;;;5.77;100.00;97576.97;5004605;28;19936;-40
2023/03/07 03:35:56;;;;;;;;;;;;;;;6.07;100.00;97607.44;5009424;28;19925;-40
2023/03/07 03:38:21;;;;;;;;;;;;;;;6.20;100.00;97618.03;5006189;28;19913;-41
2023/03/07 03:40:46;;;;;;;;;;;;;;;5.82;100.00;97610.84;5010736;28;19917;-40
2023/03/07 03:43:11;;;;;;;;;;;;;;;5.66;100.00;97609.72;5002200;28;19917;-40
2023/03/07 03:45:37;;;;;;;;;;;;;;;5.95;100.00;97607.88;5002462;28;19921;-40
2023/03/07 03:48:02;;;;;;;;;;;;;;;6.35;100.00;97608.97;5007944;28;19917;-42
2023/03/07 03:50:27;;;;;;;;;;;;;;;6.16;100.00;97591.78;5005031;28;20456;-41
2023/03/07 03:52:52;;;;;;;;;;;;;;;5.91;100.00;97585.81;5008017;28;19967;-40
2023/03/07 03:55:18;;;;;;;;;;;;;;;6.36;100.00;97600.41;5003026;28;19984;-40
2023/03/07 03:57:43;;;;;;;;;;;;;;;5.95;100.00;97579.75;5006205;28;19917;-40
2023/03/07 04:00:09;;;;;;;;;;;;;;;6.21;100.00;97584.75;5003999;28;19918;-40
2023/03/07 04:02:35;;;;;;;;;;;;;;;6.19;100.00;97581.41;5009159;28;20260;-40
2023/03/07 04:05:00;;;;;;;;;;;;;;;5.95;100.00;97574.66;5009965;28;20366;-40
2023/03/07 04:07:27;;;;;;;;;;;;;;;5.89;100.00;97569.75;5012443;28;20940;-40
2023/03/07 04:09:53;;;;;;;;;;;;;;;5.98;100.00;97570.28;5021895;28;19928;-40
2023/03/07 04:12:18;;;;;;;;;;;;;;;5.98;100.00;97572.00;5007646;28;19921;-40
2023/03/07 04:14:43;;;;;;;;;;;;;;;6.45;100.00;97579.59;5005560;28;19918;-40
2023/03/07 04:17:08;;;;;;;;;;;;;;;6.37;100.00;97577.34;5009271;28;19924;-40
2023/03/07 04:19:34;;;;;;;;;;;;;;;5.80;100.00;97553.84;5010209;28;19921;-40
2023/03/07 04:21:59;;;;;;;;;;;;;;;6.17;100.00;97562.75;5006465;28;19913;-40
2023/03/07 04:24:24;;;;;;;;;;;;;;;5.76;100.00;97549.72;5010416;28;19940;-40
2023/03/07 04:26:49;;;;;;;;;;;;;;;5.98;100.00;97559.22;5008840;28;19922;-40
2023/03/07 04:29:15;;;;;;;;;;;;;;;5.96;100.00;97546.50;5011055;28;19926;-40
2023/03/07 04:31:40;;;;;;;;;;;;;;;6.23;100.00;97557.41;5009700;28;20065;-40
2023/03/07 04:34:05;;;;;;;;;;;;;;;5.88;100.00;97543.34;5006144;28;20660;-41
2023/03/07 04:36:30;;;;;;;;;;;;;;;6.03;100.00;97547.94;5010126;28;19928;-40
2023/03/07 04:38:55;;;;;;;;;;;;;;;5.74;100.00;97553.25;5004683;28;19921;-40
2023/03/07 04:41:22;;;;;;;;;;;;;;;5.71;100.00;97561.84;5009660;28;19932;-40
2023/03/07 04:43:47;;;;;;;;;;;;;;;5.95;100.00;97559.31;5008534;28;20663;-40
2023/03/07 04:46:13;;;;;;;;;;;;;;;5.79;100.00;97575.19;5010734;28;19928;-40
2023/03/07 04:48:38;;;;;;;;;;;;;;;5.75;100.00;97573.63;5009102;28;19918;-41
2023/03/07 04:51:04;;;;;;;;;;;;;;;6.32;100.00;97581.81;5008439;28;19917;-40
2023/03/07 04:53:29;;;;;;;;;;;;;;;5.99;100.00;97555.75;5010710;28;19982;-40
2023/03/07 04:55:58;;;;;;;;;;;;;;;6.30;100.00;97552.91;5009891;28;20120;-40
2023/03/07 04:58:23;;;;;;;;;;;;;;;6.53;100.00;97543.53;5006310;28;19983;-40
2023/03/07 05:00:48;;;;;;;;;;;;;;;6.53;100.00;97541.78;5011720;28;19921;-40
2023/03/07 05:03:14;;;;;;;;;;;;;;;5.95;100.00;97526.94;5009778;28;19970;-41
2023/03/07 05:05:39;;;;;;;;;;;;;;;5.93;100.00;97532.97;5008769;28;19918;-40
2023/03/07 05:08:04;;;;;;;;;;;;;;;5.75;100.00;97522.53;5009002;28;19921;-40
2023/03/07 05:10:30;;;;;;;;;;;;;;;5.63;100.00;97522.97;5006652;28;19975;-41
2023/03/07 05:12:55;;;;;;;;;;;;;;;5.98;100.00;97533.66;5006417;28;19924;-41
2023/03/07 05:15:21;;;;;;;;;;;;;;;7.17;100.00;97537.53;5010076;28;19918;-40
2023/03/07 05:17:46;;;;;;;;;;;;;;;7.20;100.00;97516.91;5010451;28;19913;-40
2023/03/07 05:20:11;;;;;;;;;;;;;;;7.15;100.00;97473.56;5006789;28;20021;-40
2023/03/07 05:22:37;;;;;;;;;;;;;;;5.78;100.00;97425.34;5007941;28;20933;-40
2023/03/07 05:25:02;;;;;;;;;;;;;;;6.84;100.00;97444.19;5011470;28;20401;-41
2023/03/07 05:27:27;;;;;;;;;;;;;;;6.33;100.00;97424.13;5010639;28;19917;-40
2023/03/07 05:29:52;;;;;;;;;;;;;;;6.04;100.00;97421.84;5008479;28;19928;-40
2023/03/07 05:32:18;;;;;;;;;;;;;;;6.50;100.00;97437.06;5010762;28;20334;-40
2023/03/07 05:34:45;;;;;;;;;;;;;;;6.77;100.00;97421.44;5007723;28;20342;-40
2023/03/07 05:37:11;;;;;;;;;;;;;;;6.93;100.00;97435.25;5008043;28;19925;-40
2023/03/07 05:39:36;;;;;;;;;;;;;;;6.48;100.00;97411.53;5005733;28;20325;-40
2023/03/07 05:42:01;;;;;;;;;;;;;;;7.29;100.00;97419.22;5002448;28;20309;-40
2023/03/07 05:44:26;;;;;;;;;;;;;;;6.06;100.00;97373.19;5003063;28;20299;-40
2023/03/07 05:46:51;;;;;;;;;;;;;;;6.64;100.00;97396.41;5004448;28;21133;-40
2023/03/07 05:49:17;;;;;;;;;;;;;;;6.04;100.00;97405.66;5010167;28;20351;-40
2023/03/07 05:51:42;;;;;;;;;;;;;;;6.68;100.00;97440.56;5010940;28;20381;-40
2023/03/07 05:54:07;;;;;;;;;;;;;;;6.85;100.00;97419.41;5000148;28;19925;-40
2023/03/07 05:56:32;;;;;;;;;;;;;;;6.70;100.00;97408.94;5008972;28;19976;-40
2023/03/07 05:58:58;;;;;;;;;;;;;;;5.91;100.00;97399.31;5003918;28;19917;-41
2023/03/07 06:01:23;;;;;;;;;;;;;;;6.69;100.00;97427.72;5007310;28;19959;-40
2023/03/07 06:03:48;;;;;;;;;;;;;;;6.03;100.00;97401.44;5005145;28;19925;-41
2023/03/07 06:06:13;;;;;;;;;;;;;;;6.31;100.00;97431.00;5000720;28;19917;-40
2023/03/07 06:08:38;;;;;;;;;;;;;;;6.01;100.00;97432.16;5004272;28;19929;-40
2023/03/07 06:11:04;;;;;;;;;;;;;;;6.04;100.00;97443.97;5000876;28;19924;-41
2023/03/07 06:13:29;;;;;;;;;;;;;;;6.01;100.00;97459.44;5002690;28;19932;-40
2023/03/07 06:15:55;;;;;;;;;;;;;;;5.87;100.00;97458.22;5006667;28;20764;-41
2023/03/07 06:18:21;;;;;;;;;;;;;;;6.18;100.00;97471.56;5006756;28;20029;-41
2023/03/07 06:21:02;;;;;;;;;;;;;;;5.85;100.00;97466.81;5007398;28;19917;-41
2023/03/07 06:23:28;;;;;;;;;;;;;;;5.42;100.00;97474.34;5002362;28;19928;-40
2023/03/07 06:25:53;;;;;;;;;;;;;;;5.82;100.00;97498.44;5005632;28;19921;-40
2023/03/07 06:28:19;;;;;;;;;;;;;;;5.90;100.00;97502.41;5000864;28;19943;-41
2023/03/07 06:30:44;;;;;;;;;;;;;;;6.02;100.00;97513.06;5010388;28;19921;-41
2023/03/07 06:33:09;;;;;;;;;;;;;;;5.79;100.00;97506.22;5002037;28;20186;-40
2023/03/07 06:35:37;;;;;;;;;;;;;;;5.44;100.00;97497.25;5003074;28;19925;-41
2023/03/07 06:38:02;;;;;;;;;;;;;;;6.24;100.00;97520.72;5002381;28;19928;-41
2023/03/07 06:40:28;;;;;;;;;;;;;;;5.92;100.00;97521.91;5010365;28;20278;-41
2023/03/07 06:42:53;;;;;;;;;;;;;;;5.60;100.00;97520.53;5004487;28;20294;-41
2023/03/07 06:45:18;;;;;;;;;;;;;;;5.55;100.00;97499.44;5000340;28;20513;-41
2023/03/07 06:47:44;;;;;;;;;;;;;;;6.23;100.00;97526.75;5012412;28;20383;-41
2023/03/07 06:50:09;;;;;;;;;;;;;;;6.02;100.00;97512.19;5004259;28;20894;-40
2023/03/07 06:52:34;;;;;;;;;;;;;;;6.56;100.00;97531.44;5004254;28;20409;-41
2023/03/07 06:55:00;;;;;;;;;;;;;;;6.77;100.00;97523.78;5008231;28;19957;-41
2023/03/07 06:57:25;;;;;;;;;;;;;;;6.64;100.00;97501.28;5002467;28;19953;-41
2023/03/07 06:59:50;;;;;;;;;;;;;;;6.43;100.00;97466.31;5010830;28;19913;-41
2023/03/07 07:02:15;;;;;;;;;;;;;;;7.07;100.00;97470.50;5000532;28;19992;-41
2023/03/07 07:04:40;;;;;;;;;;;;;;;7.06;100.00;97438.97;5004849;28;19917;-41
2023/03/07 07:07:06;;;;;;;;;;;;;;;6.88;100.00;97427.78;5002244;28;19967;-41
2023/03/07 07:09:31;;;;;;;;;;;;;;;6.56;100.00;97416.34;5004562;28;19932;-41
2023/03/07 07:11:57;;;;;;;;;;;;;;;6.35;100.00;97410.38;4998169;28;20374;-41
2023/03/07 07:14:22;;;;;;;;;;;;;;;6.86;100.00;97434.69;5006773;28;19957;-41
2023/03/07 07:16:47;;;;;;;;;;;;;;;6.11;100.00;97419.84;5001742;28;19953;-41
2023/03/07 07:19:12;;;;;;;;;;;;;;;6.41;100.00;97440.81;5008466;28;20371;-41
2023/03/07 07:21:37;;;;;;;;;;;;;;;6.34;100.00;97436.84;5001597;28;20818;-40
2023/03/07 07:24:03;;;;;;;;;;;;;;;6.42;100.00;97457.00;5003500;28;20444;-40
2023/03/07 07:26:28;;;;;;;;;;;;;;;6.57;100.00;97446.16;5004113;28;20814;-41
2023/03/07 07:28:54;;;;;;;;;;;;;;;6.91;100.00;97444.72;5001705;28;20417;-40
2023/03/07 07:31:19;;;;;;;;;;;;;;;6.43;100.00;97407.50;5003494;28;19917;-41
2023/03/07 07:33:45;;;;;;;;;;;;;;;6.99;100.00;97426.50;5007281;28;19972;-40
2023/03/07 07:36:10;;;;;;;;;;;;;;;6.92;100.00;97400.34;5004360;28;19917;-40
2023/03/07 07:38:35;;;;;;;;;;;;;;;6.33;100.00;97391.72;5005091;28;19983;-40
2023/03/07 07:41:01;;;;;;;;;;;;;;;6.47;100.00;97398.81;5010063;28;20028;-40
2023/03/07 07:43:26;;;;;;;;;;;;;;;6.43;100.00;97397.28;5001909;28;19921;-41
2023/03/07 07:45:51;;;;;;;;;;;;;;;6.73;100.00;97418.22;5005608;28;20456;-40
2023/03/07 07:48:17;;;;;;;;;;;;;;;6.53;100.00;97411.34;5006874;28;19921;-40
2023/03/07 07:50:42;;;;;;;;;;;;;;;6.62;100.00;97413.53;5006180;28;20016;-41
2023/03/07 07:53:07;;;;;;;;;;;;;;;7.19;100.00;97430.78;5004826;28;19963;-40
2023/03/07 07:55:32;;;;;;;;;;;;;;;7.36;100.00;97410.34;5007101;28;20077;-40
2023/03/07 07:57:58;;;;;;;;;;;;;;;6.57;100.00;97382.22;5006278;28;19992;-41
2023/03/07 08:00:23;;;;;;;;;;;;;;;7.37;100.00;97395.81;5007412;28;19960;-40
2023/03/07 08:02:49;;;;;;;;;;;;;;;8.07;100.00;97391.72;5002685;28;19967;-41
2023/03/07 08:05:14;;;;;;;;;;;;;;;7.76;100.00;97372.69;5003214;28;19928;-40
2023/03/07 08:07:40;;;;;;;;;;;;;;;7.16;100.00;97341.28;5005138;28;20570;-41
2023/03/07 08:10:05;;;;;;;;;;;;;;;6.73;100.00;97343.16;5006156;28;19925;-41
2023/03/07 08:12:30;;;;;;;;;;;;;;;6.62;100.00;97352.16;5008682;28;19921;-42
2023/03/07 08:14:55;;;;;;;;;;;;;;;7.07;100.00;97386.03;5002254;28;19984;-42
2023/03/07 08:17:21;;;;;;;;;;;;;;;7.50;100.00;97390.09;5007549;28;19921;-40
2023/03/07 08:19:46;;;;;;;;;;;;;;;7.33;100.00;97378.03;5009178;28;19921;-40
2023/03/07 08:22:11;;;;;;;;;;;;;;;7.14;100.00;97374.66;5010570;28;19917;-41
2023/03/07 08:24:37;;;;;;;;;;;;;;;6.07;100.00;97359.56;5004528;28;19923;-40
2023/03/07 08:27:02;;;;;;;;;;;;;;;6.90;100.00;97397.00;5002793;28;20004;-40
2023/03/07 08:29:27;;;;;;;;;;;;;;;6.93;100.00;97385.81;5005409;28;20301;-41
2023/03/07 08:31:53;;;;;;;;;;;;;;;6.62;100.00;97377.72;5005374;28;20885;-40
2023/03/07 08:34:19;;;;;;;;;;;;;;;6.73;100.00;97378.97;5002353;28;19961;-40
2023/03/07 08:36:44;;;;;;;;;;;;;;;7.59;100.00;97398.25;5005115;28;20279;-40
2023/03/07 08:39:09;;;;;;;;;;;;;;;6.65;100.00;97362.22;5010035;28;19921;-40
2023/03/07 08:41:34;;;;;;;;;;;;;;;6.73;100.00;97371.31;5010567;28;20358;-40
2023/03/07 08:43:59;;;;;;;;;;;;;;;7.03;100.00;97380.22;5005127;28;20711;-41
2023/03/07 08:46:25;;;;;;;;;;;;;;;7.18;100.00;97385.56;5004424;28;20524;-40
2023/03/07 08:48:50;;;;;;;;;;;;;;;7.17;100.00;97371.13;5008383;28;20688;-41
2023/03/07 08:51:16;;;;;;;;;;;;;;;6.98;100.00;97379.59;5007527;28;20335;-40
2023/03/07 08:53:44;;;;;;;;;;;;;;;7.76;100.00;97382.94;5010666;28;20384;-40
2023/03/07 08:56:10;;;;;;;;;;;;;;;7.92;100.00;97377.91;5005702;28;20044;-40
2023/03/07 08:58:36;;;;;;;;;;;;;;;7.48;100.00;97343.22;5007922;28;20573;-41
2023/03/07 09:01:02;;;;;;;;;;;;;;;7.70;100.00;97342.22;5005932;28;19967;-40
2023/03/07 09:03:27;;;;;;;;;;;;;;;6.97;100.00;97308.84;5008568;28;19921;-41
2023/03/07 09:05:52;;;;;;;;;;;;;;;7.29;100.00;97332.16;5008591;28;20351;-41
2023/03/07 09:08:18;;;;;;;;;;;;;;;7.24;100.00;97323.84;5015580;28;19924;-40
2023/03/07 09:10:43;;;;;;;;;;;;;;;7.44;100.00;97351.94;5006151;28;20497;-41
2023/03/07 09:13:08;;;;;;;;;;;;;;;6.78;100.00;97326.72;5007328;28;19921;-40
2023/03/07 09:15:33;;;;;;;;;;;;;;;7.11;100.00;97349.16;5009715;28;19924;-40
2023/03/07 09:17:59;;;;;;;;;;;;;;;6.69;100.00;97348.41;5006857;28;19924;-41
2023/03/07 09:20:24;;;;;;;;;;;;;;;6.75;100.00;97365.25;5010687;28;19917;-41
2023/03/07 09:22:50;;;;;;;;;;;;;;;6.14;100.00;97371.19;5008017;28;19921;-41
2023/03/07 09:25:16;;;;;;;;;;;;;;;5.98;100.00;97400.81;5006665;28;19957;-41
2023/03/07 09:27:44;;;;;;;;;;;;;;;6.03;100.00;97425.28;5006073;28;20808;-41
2023/03/07 09:30:09;;;;;;;;;;;;;;;5.85;100.00;97442.09;5006599;28;20428;-41
2023/03/07 09:32:35;;;;;;;;;;;;;;;5.93;100.00;97469.06;5002169;28;19921;-41
2023/03/07 09:35:00;;;;;;;;;;;;;;;6.80;100.00;97521.13;5003366;28;19956;-41
2023/03/07 09:37:25;;;;;;;;;;;;;;;5.84;100.00;97501.75;5004460;28;19918;-41
2023/03/07 09:39:50;;;;;;;;;;;;;;;5.70;100.00;97509.06;5007782;28;19921;-41
2023/03/07 09:42:21;;;;;;;;;;;;;;;5.30;100.00;97522.44;5011655;28;19956;-40
2023/03/07 09:44:51;;;;;;;;;;;;;;;4.86;100.00;97533.25;5004488;28;19933;-41
2023/03/07 09:47:24;;;;;;;;;;;;;;;5.26;100.00;97565.09;5011859;28;19913;-41
2023/03/07 09:49:49;;;;;;;;;;;;;;;5.17;100.00;97583.28;5023272;28;20892;-41
2023/03/07 09:52:19;;;;;;;;;;;;;;;4.91;100.00;97590.06;5006756;28;19956;-41
2023/03/07 09:54:45;;;;;;;;;;;;;;;4.87;100.00;97616.53;5012509;28;19924;-41
2023/03/07 09:57:13;;;;;;;;;;;;;;;4.32;100.00;97630.97;5003034;28;19925;-41
2023/03/07 09:59:40;;;;;;;;;;;;;;;4.12;100.00;97655.28;5022295;28;19913;-41
2023/03/07 10:02:17;;;;;;;;;;;;;;;3.93;94.31;97675.34;5002456;28;20472;-41
2023/03/07 10:05:01;;;;;;;;;;;;;;;2.84;89.96;97680.53;5012627;28;19963;-41
2023/03/07 10:07:26;;;;;;;;;;;;;;;2.80;82.79;97713.69;5005034;28;19960;-41
2023/03/07 10:10:11;;;;;;;;;;;;;;;2.88;77.05;97752.50;5005239;28;19974;-41
2023/03/07 10:12:45;;;;;;;;;;;;;;;2.72;74.98;97773.16;5006432;28;20619;-41
2023/03/07 10:15:16;;;;;;;;;;;;;;;2.98;71.33;97816.72;5006747;28;19925;-41
2023/03/07 10:18:00;;;;;;;;;;;;;;;3.14;67.86;97856.22;5031358;28;20004;-40
2023/03/07 10:20:44;;;;;;;;;;;;;;;3.10;66.89;97868.19;5007854;28;19921;-40
2023/03/07 10:23:31;;;;;;;;;;;;;;;3.20;66.63;97886.63;5002716;28;20031;-40
2023/03/07 10:26:16;;;;;;;;;;;;;;;3.01;67.22;97888.72;5000354;28;19917;-40
2023/03/07 10:28:41;;;;;;;;;;;;;;;3.38;64.49;97915.97;5002089;28;19917;-40
2023/03/07 10:31:28;;;;;;;;;;;;;;;2.81;67.14;97894.16;5022714;28;19972;-40
2023/03/07 10:33:54;;;;;;;;;;;;;;;2.82;65.16;97916.19;5009028;28;19991;-40
2023/03/07 10:36:27;;;;;;;;;;;;;;;2.67;63.89;97921.56;5009008;28;20358;-40
2023/03/07 10:38:55;;;;;;;;;;;;;;;2.85;63.13;97950.88;5028438;28;19921;-40
2023/03/07 10:41:20;;;;;;;;;;;;;;;2.86;62.52;97963.56;5005534;28;19913;-40
2023/03/07 10:43:45;;;;;;;;;;;;;;;2.72;62.62;97965.53;5010572;28;19932;-40
2023/03/07 10:46:18;;;;;;;;;;;;;;;2.60;62.90;97978.41;5006699;28;20046;-40
2023/03/07 10:48:53;;;;;;;;;;;;;;;3.06;60.62;98018.34;5005707;28;20556;-40
2023/03/07 10:51:33;;;;;;;;;;;;;;;2.85;63.54;98010.22;5003970;28;19917;-40
2023/03/07 10:53:58;;;;;;;;;;;;;;;3.65;59.96;98049.47;5006385;28;19921;-40
2023/03/07 10:56:24;;;;;;;;;;;;;;;3.38;64.02;98022.84;5007949;28;19983;-40
2023/03/07 10:58:58;;;;;;;;;;;;;;;3.55;64.25;98035.22;5013079;28;20016;-40
2023/03/07 11:01:26;;;;;;;;;;;;;;;3.83;63.92;98039.78;5005195;28;19996;-40
2023/03/07 11:04:03;;;;;;;;;;;;;;;4.18;65.56;98037.31;5006797;28;20367;-40
2023/03/07 11:06:33;;;;;;;;;;;;;;;3.93;69.99;98010.72;5000710;28;19976;-40
2023/03/07 11:09:08;;;;;;;;;;;;;;;3.81;71.75;97993.13;5011169;28;20024;-40
2023/03/07 11:11:34;;;;;;;;;;;;;;;3.64;74.76;97973.94;4999695;28;19928;-40
2023/03/07 11:14:20;;;;;;;;;;;;;;;3.33;75.63;97949.13;5005127;28;19921;-40
2023/03/07 11:16:51;;;;;;;;;;;;;;;3.31;72.96;97945.78;5001579;28;20298;-40
2023/03/07 11:19:24;;;;;;;;;;;;;;;3.53;71.58;97966.53;5001978;28;20160;-40
2023/03/07 11:21:53;;;;;;;;;;;;;;;4.04;69.62;97982.44;5003767;28;19949;-40
2023/03/07 11:24:26;;;;;;;;;;;;;;;4.38;70.76;98001.22;5003442;28;19918;-41
2023/03/07 11:26:58;;;;;;;;;;;;;;;4.15;75.67;97971.16;5004376;28;19968;-40
2023/03/07 11:29:24;;;;;;;;;;;;;;;3.92;78.73;97942.78;5004427;28;20020;-40
2023/03/07 11:31:49;;;;;;;;;;;;;;;4.44;78.45;97961.97;5007885;28;20359;-41
2023/03/07 11:34:20;;;;;;;;;;;;;;;4.08;84.38;97928.84;5005134;28;20219;-40
2023/03/07 11:36:47;;;;;;;;;;;;;;;4.53;82.79;97935.44;5004978;28;19920;-41
2023/03/07 11:39:27;;;;;;;;;;;;;;;4.67;84.13;97937.63;5007663;28;19917;-41
2023/03/07 11:41:57;;;;;;;;;;;;;;;4.27;90.03;97891.03;5006731;28;19925;-41
2023/03/07 11:44:28;;;;;;;;;;;;;;;4.40;90.05;97901.75;5005561;28;19917;-41
2023/03/07 11:46:54;;;;;;;;;;;;;;;4.29;91.94;97875.69;5003742;28;19921;-41
2023/03/07 11:49:22;;;;;;;;;;;;;;;4.68;91.95;97893.41;5005712;28;19917;-41
2023/03/07 11:51:47;;;;;;;;;;;;;;;4.26;95.35;97870.66;5003962;28;19918;-40
2023/03/07 11:54:15;;;;;;;;;;;;;;;4.34;95.49;97871.31;5007222;28;19947;-40
2023/03/07 11:56:43;;;;;;;;;;;;;;;4.00;97.67;97844.13;5001463;28;19921;-40
2023/03/07 11:59:15;;;;;;;;;;;;;;;5.01;92.24;97891.66;5021782;28;20453;-40
2023/03/07 12:02:01;;;;;;;;;;;;;;;4.74;97.80;97862.63;5000801;28;20366;-40
2023/03/07 12:04:32;;;;;;;;;;;;;;;4.44;97.04;97849.81;5004711;28;19917;-40
2023/03/07 12:07:00;;;;;;;;;;;;;;;3.59;100.00;97807.75;5001839;28;20433;-40
2023/03/07 12:09:44;;;;;;;;;;;;;;;3.78;98.10;97826.78;5006614;28;19921;-40
2023/03/07 12:12:17;;;;;;;;;;;;;;;3.69;97.69;97824.47;5000734;28;19921;-40
2023/03/07 12:14:54;;;;;;;;;;;;;;;3.65;94.25;97833.06;5023710;28;19921;-40
2023/03/07 12:17:31;;;;;;;;;;;;;;;4.08;91.58;97870.25;5005414;28;20294;-41
2023/03/07 12:20:12;;;;;;;;;;;;;;;4.40;91.80;97886.44;5009087;28;19917;-40
2023/03/07 12:22:56;;;;;;;;;;;;;;;3.88;96.53;97849.53;5004111;28;19918;-40
2023/03/07 12:25:21;;;;;;;;;;;;;;;3.60;94.00;97842.50;5009802;28;19956;-41
2023/03/07 12:27:52;;;;;;;;;;;;;;;3.91;92.63;97864.72;5008090;28;20560;-41
2023/03/07 12:30:18;;;;;;;;;;;;;;;4.08;90.90;97877.91;5010086;28;19921;-41
2023/03/07 12:32:44;;;;;;;;;;;;;;;4.32;92.66;97890.91;5005704;28;19944;-41
2023/03/07 12:35:12;;;;;;;;;;;;;;;3.99;95.54;97867.91;5001297;28;19944;-41
2023/03/07 12:37:43;;;;;;;;;;;;;;;4.44;94.65;97885.50;5023577;28;20379;-41
2023/03/07 12:40:22;;;;;;;;;;;;;;;4.43;95.59;97865.16;5000028;28;20286;-41
2023/03/07 12:42:48;;;;;;;;;;;;;;;3.94;98.35;97849.34;5005064;28;19917;-41
2023/03/07 12:45:16;;;;;;;;;;;;;;;4.55;93.87;97878.41;5006671;28;19928;-41
2023/03/07 12:47:44;;;;;;;;;;;;;;;4.69;97.19;97874.66;5008517;28;20434;-41